Port Augusta, South Australia

8:13 PM ACST on September 27, 2016 (GMT +0930)
Port Augusta | | Change Station

Elev 39 ft 32.51 °S, 137.78 °E | Updated 9 seconds ago

Clear
Clear
59.0 °F
Feels Like 59.0 °F
N
0.0
Wind Variable Wind from NNW
Gusts 0.0 mph

Today
High -- | Low -- °F
--% Chance of Precip.
Yesterday
High -- | Low -- °F
Precip. -- in
Pressure 29.89 in
Visibility 6.2 miles
Clouds
Dew Point 46 °F
Humidity 61%
Rainfall 0.00 in
Snow Depth Not available.
6:01 AM 6:18 PM
Waning Crescent, 12% visible
METAR YWHA 271000Z AUTO 05007KT 9999 // NCD 15/07 Q1012
Pressure 29.89 in
Visibility 6.2 miles
Clouds
Dew Point 46 °F
Humidity 61%
Rainfall 0.00 in
Snow Depth Not available.
6:01 AM 6:18 PM
Waning Crescent, 12% visible
METAR YWHA 271000Z AUTO 05007KT 9999 // NCD 15/07 Q1012

10-Day Weather Forecast

No radar image for this location.
×

Almanac

Astronomy

Sep. 27, 2016 Rise Set
Actual Time
Civil Twilight
Nautical Twilight
Astronomical Twilight
Moon
Length of Visible Light
Length of Day
Tomorrow will be .
, % of the Moon is Illuminated

Today's Extremes

Country Highs Country Lows

Community

WunderPhotos

Upload Photos

1,942,057 photos uploaded!

WunderBlog® & News

Nearby

Air Quality

  Air Quality AQ Index Pollutant
Not available.

Snow Depth

Station Depth Elevation

Earthquake Activity

City Distance Mag. Time & Date
Minimum magnitude displayed is 2.5.

Coastal Water Temperatures

Place Temperature

Stations

Nearby Weather Stations

Station Location Temp. Windchill Dew Point Humidity Wind Precip. Elev Updated Type